createdAt,value
2018-06-23T00:01:33.724Z,11.80
2018-06-23T00:04:01.760Z,11.80
2018-06-23T00:06:29.860Z,11.80
2018-06-23T00:08:57.873Z,11.80
2018-06-23T00:11:25.884Z,11.80
2018-06-23T00:13:53.945Z,11.70
2018-06-23T00:16:21.975Z,11.70
2018-06-23T00:18:49.996Z,11.80
2018-06-23T00:21:18.005Z,11.80
2018-06-23T00:23:46.030Z,11.70
2018-06-23T00:26:19.531Z,11.70
2018-06-23T00:28:47.592Z,11.80
2018-06-23T00:31:15.636Z,11.70
2018-06-23T00:33:43.678Z,11.70
2018-06-23T00:36:11.677Z,11.70
2018-06-23T00:38:39.692Z,11.70
2018-06-23T00:43:35.541Z,11.80
2018-06-23T00:46:03.580Z,11.80
2018-06-23T00:48:31.592Z,11.80
2018-06-23T00:50:59.600Z,11.80
2018-06-23T00:53:27.642Z,11.80
2018-06-23T00:55:55.700Z,11.90
2018-06-23T00:58:23.728Z,11.90
2018-06-23T01:00:51.754Z,11.90
2018-06-23T01:03:19.751Z,11.90
2018-06-23T01:05:47.794Z,12.00
2018-06-23T01:08:15.848Z,12.00
2018-06-23T01:10:43.848Z,12.00
2018-06-23T01:13:11.860Z,12.10
2018-06-23T01:18:07.695Z,12.10
2018-06-23T01:23:03.576Z,12.10
2018-06-23T01:25:31.584Z,12.00
2018-06-23T01:27:59.644Z,11.90
2018-06-23T01:30:27.664Z,11.80
2018-06-23T01:32:55.676Z,11.70
2018-06-23T01:35:23.695Z,11.70
2018-06-23T01:37:51.708Z,11.70
2018-06-23T01:40:19.743Z,11.70
2018-06-23T01:42:47.750Z,11.60
2018-06-23T01:45:15.808Z,11.60
2018-06-23T01:47:43.826Z,11.70
2018-06-23T01:50:11.841Z,11.70
2018-06-23T01:52:39.848Z,11.70
2018-06-23T01:55:07.914Z,11.70
2018-06-23T01:57:35.982Z,11.70
2018-06-23T02:00:04.000Z,11.80
2018-06-23T02:02:32.012Z,11.80
2018-06-23T02:05:00.025Z,11.80
2018-06-23T02:07:28.064Z,11.80
2018-06-23T02:09:56.068Z,11.70
2018-06-23T02:14:57.420Z,11.70
2018-06-23T02:20:04.226Z,11.60
2018-06-23T02:22:37.578Z,11.70
2018-06-23T02:25:11.038Z,11.70
2018-06-23T02:27:44.473Z,11.80
2018-06-23T02:30:17.917Z,11.80
2018-06-23T02:32:51.591Z,11.80
2018-06-23T02:35:19.964Z,11.80
2018-06-23T02:37:48.019Z,11.80
2018-06-23T02:40:16.040Z,11.80
2018-06-23T02:42:44.056Z,11.80
2018-06-23T02:45:12.101Z,11.80
2018-06-23T02:47:40.119Z,11.80
2018-06-23T02:50:08.162Z,11.90
2018-06-23T02:52:36.172Z,11.90
2018-06-23T02:57:32.064Z,11.90
2018-06-23T03:00:00.101Z,12.00
2018-06-23T03:02:28.092Z,12.00
2018-06-23T03:04:56.473Z,12.10
2018-06-23T03:07:24.585Z,12.10
2018-06-23T03:09:52.592Z,12.20
2018-06-23T03:12:20.620Z,12.20
2018-06-23T03:14:48.640Z,12.20
2018-06-23T03:17:17.652Z,12.20
2018-06-23T03:19:50.128Z,12.30
2018-06-23T03:22:18.396Z,12.30
2018-06-23T03:24:46.436Z,12.30
2018-06-23T03:27:14.761Z,12.30
2018-06-23T03:29:42.794Z,12.30
2018-06-23T03:32:11.360Z,12.30
2018-06-23T03:34:39.369Z,12.40
2018-06-23T03:37:07.404Z,12.40
2018-06-23T03:39:35.423Z,12.40
2018-06-23T03:42:03.450Z,12.50
2018-06-23T03:44:31.460Z,12.50
2018-06-23T03:46:59.480Z,12.50
2018-06-23T03:49:27.509Z,12.50
2018-06-23T03:51:55.523Z,12.50
2018-06-23T03:54:23.544Z,12.60
2018-06-23T03:56:51.603Z,12.60
2018-06-23T03:59:19.640Z,12.60
2018-06-23T04:01:47.660Z,12.60
2018-06-23T04:04:15.705Z,12.60
2018-06-23T04:06:43.725Z,12.60
2018-06-23T04:11:40.140Z,12.50
2018-06-23T04:14:08.501Z,12.60
2018-06-23T04:16:36.514Z,12.50
2018-06-23T04:19:04.561Z,12.50
2018-06-23T04:21:32.576Z,12.50
2018-06-23T04:24:00.670Z,12.60
2018-06-23T04:26:29.256Z,12.50
2018-06-23T04:28:57.752Z,12.50
2018-06-23T04:31:25.755Z,12.50
2018-06-23T04:36:21.580Z,12.60
2018-06-23T04:38:49.615Z,12.60
2018-06-23T04:41:17.624Z,12.60
2018-06-23T04:43:45.648Z,12.70
2018-06-23T04:46:13.648Z,12.70
2018-06-23T04:48:41.707Z,12.80
2018-06-23T04:51:09.712Z,12.80
2018-06-23T04:56:11.524Z,12.90
2018-06-23T04:58:39.919Z,12.80
2018-06-23T05:01:07.972Z,12.90
2018-06-23T05:03:36.002Z,12.80
2018-06-23T05:08:32.044Z,12.70
2018-06-23T05:11:00.064Z,12.70
2018-06-23T05:13:28.064Z,12.70
2018-06-23T05:15:56.056Z,12.70
2018-06-23T05:18:24.107Z,12.70
2018-06-23T05:20:52.123Z,12.80
2018-06-23T05:23:20.148Z,12.80
2018-06-23T05:25:48.161Z,12.80
2018-06-23T05:28:16.192Z,12.90
2018-06-23T05:33:12.062Z,12.90
2018-06-23T05:35:40.073Z,12.90
2018-06-23T05:38:08.346Z,12.90
2018-06-23T05:40:36.364Z,12.90
2018-06-23T05:43:04.376Z,12.90
2018-06-23T05:45:32.416Z,12.90
2018-06-23T05:50:29.072Z,13.00
2018-06-23T05:52:57.155Z,13.00
2018-06-23T05:55:25.200Z,13.10
2018-06-23T05:57:53.225Z,13.10
2018-06-23T06:00:21.252Z,13.20
2018-06-23T06:02:49.261Z,13.20
2018-06-23T06:05:17.286Z,13.20
2018-06-23T06:07:45.296Z,13.30
2018-06-23T06:10:13.320Z,13.30
2018-06-23T06:12:41.372Z,13.40
2018-06-23T06:15:09.393Z,13.30
2018-06-23T06:17:38.609Z,13.40
2018-06-23T06:20:08.300Z,13.30
2018-06-23T06:22:38.516Z,13.30
2018-06-23T06:25:06.780Z,13.40
2018-06-23T06:27:34.856Z,13.40
2018-06-23T06:30:02.872Z,13.40
2018-06-23T06:34:58.892Z,13.50
2018-06-23T06:37:26.900Z,13.60
2018-06-23T06:39:54.907Z,13.60
2018-06-23T06:42:22.940Z,13.70
2018-06-23T06:44:50.940Z,13.70
2018-06-23T06:47:19.741Z,13.80
2018-06-23T06:49:48.031Z,13.80
2018-06-23T06:52:16.050Z,13.80
2018-06-23T06:54:44.487Z,13.90
2018-06-23T06:57:12.576Z,13.90
2018-06-23T06:59:40.535Z,13.90
2018-06-23T07:02:08.780Z,14.00
2018-06-23T07:04:36.824Z,14.10
2018-06-23T07:07:04.860Z,14.00
2018-06-23T07:12:00.691Z,14.10
2018-06-23T07:14:28.699Z,14.10
2018-06-23T07:16:56.712Z,14.20
2018-06-23T07:19:24.770Z,14.30
2018-06-23T07:21:52.776Z,14.30
2018-06-23T07:24:20.809Z,14.30
2018-06-23T07:26:48.880Z,14.20
2018-06-23T07:29:16.839Z,14.30
2018-06-23T07:31:44.844Z,14.30
2018-06-23T07:34:12.906Z,14.40
2018-06-23T07:36:40.900Z,14.50
2018-06-23T07:39:10.145Z,14.60
2018-06-23T07:41:38.344Z,14.60
2018-06-23T07:44:06.947Z,14.60
2018-06-23T07:49:03.152Z,14.50
2018-06-23T07:51:31.328Z,14.40
2018-06-23T07:53:59.369Z,14.40
2018-06-23T07:56:27.379Z,14.40
2018-06-23T07:58:55.536Z,14.40
2018-06-23T08:01:23.544Z,14.40
2018-06-23T08:06:19.389Z,14.00
2018-06-23T08:08:47.396Z,13.90
2018-06-23T08:11:15.489Z,14.00
2018-06-23T08:13:43.493Z,13.90
2018-06-23T08:16:11.509Z,13.90
2018-06-23T08:18:39.570Z,14.10
2018-06-23T08:21:07.561Z,14.20
2018-06-23T08:23:35.564Z,14.40
2018-06-23T08:28:32.089Z,14.40
2018-06-23T08:31:00.125Z,14.30
2018-06-23T08:33:29.147Z,14.30
2018-06-23T08:35:57.183Z,14.40
2018-06-23T08:38:25.202Z,14.40
2018-06-23T08:40:53.220Z,14.40
2018-06-23T08:43:21.235Z,14.30
2018-06-23T08:45:49.246Z,14.20
2018-06-23T08:48:17.304Z,14.20
2018-06-23T08:50:45.469Z,14.30
2018-06-23T08:53:13.466Z,14.40
2018-06-23T08:55:41.497Z,14.60
2018-06-23T08:58:09.492Z,14.80
2018-06-23T09:00:37.516Z,15.00
2018-06-23T09:03:05.904Z,15.10
2018-06-23T09:05:34.073Z,15.30
2018-06-23T09:08:02.085Z,15.30
2018-06-23T09:10:30.106Z,15.10
2018-06-23T09:12:58.117Z,14.90
2018-06-23T09:15:26.118Z,14.80
2018-06-23T09:17:54.152Z,14.90
2018-06-23T09:22:49.981Z,14.60
2018-06-23T09:25:18.012Z,14.60
2018-06-23T09:27:46.008Z,14.70
2018-06-23T09:30:14.024Z,14.80
2018-06-23T09:32:42.046Z,14.80
2018-06-23T09:35:10.054Z,15.00
2018-06-23T09:37:38.077Z,15.00
2018-06-23T09:40:06.097Z,14.90
2018-06-23T09:42:34.107Z,15.00
2018-06-23T09:45:02.117Z,15.10
2018-06-23T09:47:30.152Z,15.30
2018-06-23T09:49:58.171Z,15.30
2018-06-23T09:52:26.188Z,15.30
2018-06-23T09:54:54.188Z,15.30
2018-06-23T09:59:50.022Z,15.40
2018-06-23T10:04:45.852Z,15.40
2018-06-23T10:09:41.683Z,15.10
2018-06-23T10:12:09.686Z,15.10
2018-06-23T10:14:37.716Z,15.20
2018-06-23T10:19:33.580Z,14.90
2018-06-23T10:22:01.600Z,14.90
2018-06-23T10:24:29.700Z,14.90
2018-06-23T10:26:57.723Z,14.80
2018-06-23T10:29:25.744Z,14.80
2018-06-23T10:31:54.143Z,15.00
2018-06-23T10:34:22.169Z,15.00
2018-06-23T10:36:50.189Z,15.00
2018-06-23T10:39:18.262Z,14.90
2018-06-23T10:41:46.360Z,14.90
2018-06-23T10:44:14.368Z,14.80
2018-06-23T10:49:10.231Z,14.80
2018-06-23T10:51:38.232Z,14.80
2018-06-23T10:54:06.316Z,14.90
2018-06-23T10:56:34.348Z,14.90
2018-06-23T10:59:02.429Z,14.40
2018-06-23T11:01:30.468Z,14.40
2018-06-23T11:03:58.517Z,14.40
2018-06-23T11:06:26.532Z,14.60
2018-06-23T11:08:54.606Z,14.60
2018-06-23T11:11:22.576Z,14.80
2018-06-23T11:13:50.618Z,15.00
2018-06-23T11:16:18.625Z,15.00
2018-06-23T11:18:46.669Z,14.70
2018-06-23T11:21:14.761Z,14.40
2018-06-23T11:23:42.780Z,14.10
2018-06-23T11:28:38.606Z,13.70
2018-06-23T11:31:06.633Z,13.70
2018-06-23T11:33:34.636Z,13.80
2018-06-23T11:36:02.650Z,13.90
2018-06-23T11:38:30.660Z,14.00
2018-06-23T11:40:58.672Z,13.90
2018-06-23T11:43:26.689Z,13.80
2018-06-23T11:45:54.693Z,13.90
2018-06-23T11:48:22.779Z,13.90
2018-06-23T11:50:50.860Z,13.90
2018-06-23T11:53:18.892Z,13.70
2018-06-23T11:55:46.920Z,13.60
2018-06-23T11:58:14.923Z,13.70
2018-06-23T12:00:42.924Z,13.70
2018-06-23T12:05:38.823Z,13.90
2018-06-23T12:08:06.849Z,14.00
2018-06-23T12:10:34.856Z,14.00
2018-06-23T12:13:02.878Z,14.10
2018-06-23T12:15:30.888Z,14.00
2018-06-23T12:17:58.920Z,13.90
2018-06-23T12:20:26.950Z,13.80
2018-06-23T12:22:54.980Z,13.70
2018-06-23T12:25:23.069Z,13.50
2018-06-23T12:27:51.030Z,13.40
2018-06-23T12:30:19.146Z,13.30
2018-06-23T12:32:47.202Z,13.40
2018-06-23T12:35:15.207Z,13.40
2018-06-23T12:40:11.082Z,13.40
2018-06-23T12:42:39.108Z,13.50
2018-06-23T12:45:07.127Z,13.40
2018-06-23T12:47:35.190Z,13.40
2018-06-23T12:50:03.221Z,13.30
2018-06-23T12:52:31.231Z,13.20
2018-06-23T12:54:59.272Z,13.20
2018-06-23T12:57:27.300Z,13.20
2018-06-23T12:59:55.320Z,13.20
2018-06-23T13:02:23.552Z,13.20
2018-06-23T13:04:51.626Z,13.10
2018-06-23T13:07:19.585Z,13.10
2018-06-23T13:09:47.892Z,13.20
2018-06-23T13:12:15.908Z,13.20
2018-06-23T13:14:43.973Z,13.20
2018-06-23T13:17:12.001Z,13.30
2018-06-23T13:19:40.030Z,13.20
2018-06-23T13:22:08.068Z,13.30
2018-06-23T13:24:36.107Z,13.30
2018-06-23T13:27:04.141Z,13.30
2018-06-23T13:29:32.169Z,13.30
2018-06-23T13:32:00.205Z,13.20
2018-06-23T13:36:56.078Z,13.10
2018-06-23T13:39:24.152Z,13.10
2018-06-23T13:41:52.184Z,13.00
2018-06-23T13:46:48.064Z,13.00
2018-06-23T13:49:16.098Z,13.00
2018-06-23T13:51:44.145Z,13.10
2018-06-23T13:54:12.168Z,13.10
2018-06-23T13:56:40.211Z,13.10
2018-06-23T14:01:36.057Z,13.20
2018-06-23T14:04:04.118Z,13.20
2018-06-23T14:06:32.142Z,13.10
2018-06-23T14:09:00.205Z,13.10
2018-06-23T14:11:28.247Z,13.00
2018-06-23T14:13:56.290Z,13.10
2018-06-23T14:18:52.116Z,13.00
2018-06-23T14:23:47.974Z,13.00
2018-06-23T14:26:15.995Z,13.00
2018-06-23T14:28:44.004Z,13.00
2018-06-23T14:33:39.868Z,13.10
2018-06-23T14:36:07.900Z,13.10
2018-06-23T14:41:03.772Z,13.10
2018-06-23T14:43:31.806Z,13.10
2018-06-23T14:48:27.635Z,13.00
2018-06-23T14:50:56.068Z,13.00
2018-06-23T14:53:24.076Z,13.10
2018-06-23T14:55:52.124Z,13.10
2018-06-23T14:58:20.195Z,13.10
2018-06-23T15:00:48.260Z,13.10
2018-06-23T15:03:16.308Z,13.10
2018-06-23T15:05:44.333Z,13.10
2018-06-23T15:08:23.656Z,13.20
2018-06-23T15:11:03.136Z,13.20
2018-06-23T15:13:31.184Z,13.20
2018-06-23T15:15:59.180Z,13.30
2018-06-23T15:18:27.215Z,13.20
2018-06-23T15:23:23.062Z,13.20
2018-06-23T15:25:52.149Z,13.10
2018-06-23T15:30:47.987Z,13.20
2018-06-23T15:33:16.015Z,13.20
2018-06-23T15:35:44.020Z,13.30
2018-06-23T15:40:39.863Z,13.30
2018-06-23T15:43:07.861Z,13.30
2018-06-23T15:45:35.868Z,13.40
2018-06-23T15:48:03.883Z,13.40
2018-06-23T15:50:31.908Z,13.40
2018-06-23T15:52:59.920Z,13.30
2018-06-23T15:55:27.955Z,13.30
2018-06-23T15:57:55.973Z,13.20
2018-06-23T16:00:24.035Z,13.20
2018-06-23T16:02:52.065Z,13.10
2018-06-23T16:05:20.081Z,13.10
2018-06-23T16:07:48.153Z,13.10
2018-06-23T16:10:19.016Z,13.20
2018-06-23T16:12:47.049Z,13.20
2018-06-23T16:15:15.099Z,13.20
2018-06-23T16:17:43.116Z,13.20
2018-06-23T16:20:11.136Z,13.30
2018-06-23T16:22:39.213Z,13.20
2018-06-23T16:27:35.307Z,13.20
2018-06-23T16:30:03.513Z,13.20
2018-06-23T16:32:31.548Z,13.20
2018-06-23T16:34:59.766Z,13.10
2018-06-23T16:37:27.629Z,13.10
2018-06-23T16:39:55.640Z,13.10
2018-06-23T16:42:23.668Z,13.10
2018-06-23T16:44:51.708Z,13.10
2018-06-23T16:47:19.747Z,13.10
2018-06-23T16:49:47.736Z,13.10
2018-06-23T16:52:16.116Z,13.10
2018-06-23T16:54:44.116Z,13.20
2018-06-23T16:57:12.155Z,13.10
2018-06-23T16:59:40.172Z,13.00
2018-06-23T17:02:09.232Z,13.10
2018-06-23T17:04:37.267Z,13.10
2018-06-23T17:07:05.289Z,13.10
2018-06-23T17:09:33.345Z,13.10
2018-06-23T17:12:01.390Z,13.10
2018-06-23T17:14:29.392Z,13.10
2018-06-23T17:16:57.436Z,13.10
2018-06-23T17:19:25.467Z,13.10
2018-06-23T17:24:21.292Z,13.00
2018-06-23T17:26:49.321Z,13.00
2018-06-23T17:29:17.344Z,13.10
2018-06-23T17:31:45.360Z,13.00
2018-06-23T17:34:13.406Z,13.00
2018-06-23T17:36:41.448Z,13.00
2018-06-23T17:39:10.700Z,13.00
2018-06-23T17:41:38.995Z,13.00
2018-06-23T17:44:07.025Z,13.00
2018-06-23T17:46:35.138Z,12.90
2018-06-23T17:49:03.195Z,13.00
2018-06-23T17:51:31.289Z,13.00
2018-06-23T17:53:59.249Z,12.90
2018-06-23T17:56:27.268Z,12.80
2018-06-23T17:58:55.287Z,12.80
2018-06-23T18:03:51.134Z,12.80
2018-06-23T18:08:47.023Z,12.80
2018-06-23T18:11:15.438Z,12.70
2018-06-23T18:13:43.446Z,12.70
2018-06-23T18:16:11.461Z,12.70
2018-06-23T18:18:39.505Z,12.70
2018-06-23T18:21:07.533Z,12.70
2018-06-23T18:26:03.428Z,12.70
2018-06-23T18:28:31.445Z,12.70
2018-06-23T18:30:59.471Z,12.70
2018-06-23T18:33:27.549Z,12.70
2018-06-23T18:35:55.695Z,12.60
2018-06-23T18:39:26.752Z,12.60
2018-06-23T18:41:54.814Z,12.60
2018-06-23T18:44:22.865Z,12.70
2018-06-23T18:46:50.945Z,12.60
2018-06-23T18:49:18.987Z,12.60
2018-06-23T18:51:47.003Z,12.60
2018-06-23T18:54:15.017Z,12.60
2018-06-23T18:56:43.065Z,12.60
2018-06-23T18:59:11.155Z,12.60
2018-06-23T19:01:39.209Z,12.60
2018-06-23T19:04:07.237Z,12.60
2018-06-23T19:06:35.319Z,12.50
2018-06-23T19:09:04.168Z,12.50
2018-06-23T19:11:32.145Z,12.50
2018-06-23T19:14:00.211Z,12.50
2018-06-23T19:16:28.232Z,12.50
2018-06-23T19:18:56.277Z,12.40
2018-06-23T19:21:24.308Z,12.40
2018-06-23T19:23:52.323Z,12.40
2018-06-23T19:26:20.348Z,12.50
2018-06-23T19:28:48.472Z,12.50
2018-06-23T19:31:16.485Z,12.50
2018-06-23T19:36:12.349Z,12.50
2018-06-23T19:38:40.457Z,12.50
2018-06-23T19:41:19.299Z,12.50
2018-06-23T19:43:47.390Z,12.50
2018-06-23T19:46:15.620Z,12.50
2018-06-23T19:48:43.804Z,12.50
2018-06-23T19:51:11.830Z,12.50
2018-06-23T19:53:39.879Z,12.50
2018-06-23T19:58:35.974Z,12.50
2018-06-23T20:01:03.996Z,12.40
2018-06-23T20:03:32.027Z,12.40
2018-06-23T20:06:00.034Z,12.40
2018-06-23T20:08:28.094Z,12.40
2018-06-23T20:10:56.117Z,12.40
2018-06-23T20:13:24.136Z,12.40
2018-06-23T20:15:52.365Z,12.50
2018-06-23T20:18:20.416Z,12.50
2018-06-23T20:20:48.445Z,12.50
2018-06-23T20:23:16.524Z,12.50
2018-06-23T20:25:44.688Z,12.50
2018-06-23T20:30:40.702Z,12.50
2018-06-23T20:33:08.773Z,12.50
2018-06-23T20:35:36.812Z,12.50
2018-06-23T20:38:04.901Z,12.50
2018-06-23T20:40:33.136Z,12.50
2018-06-23T20:43:01.168Z,12.40
2018-06-23T20:45:29.220Z,12.40
2018-06-23T20:47:57.254Z,12.50
2018-06-23T20:50:25.293Z,12.50
2018-06-23T20:55:21.171Z,12.50
2018-06-23T20:57:49.219Z,12.50
2018-06-23T21:00:17.256Z,12.50
2018-06-23T21:02:45.275Z,12.50
2018-06-23T21:05:13.319Z,12.50
2018-06-23T21:07:41.365Z,12.40
2018-06-23T21:10:23.377Z,12.50
2018-06-23T21:12:51.421Z,12.40
2018-06-23T21:15:19.460Z,12.40
2018-06-23T21:17:47.537Z,12.40
2018-06-23T21:20:15.593Z,12.40
2018-06-23T21:22:43.615Z,12.40
2018-06-23T21:25:11.653Z,12.40
2018-06-23T21:27:39.697Z,12.40
2018-06-23T21:30:07.724Z,12.40
2018-06-23T21:32:35.740Z,12.40
2018-06-23T21:35:03.793Z,12.40
2018-06-23T21:37:31.816Z,12.40
2018-06-23T21:39:59.827Z,12.50
2018-06-23T21:42:27.888Z,12.50
2018-06-23T21:47:24.355Z,12.50
2018-06-23T21:49:52.326Z,12.50
2018-06-23T21:52:20.344Z,12.60
2018-06-23T21:54:48.370Z,12.60
2018-06-23T21:57:16.384Z,12.60
2018-06-23T21:59:44.748Z,12.60
2018-06-23T22:02:12.793Z,12.60
2018-06-23T22:04:40.795Z,12.60
2018-06-23T22:07:08.809Z,12.60
2018-06-23T22:09:36.837Z,12.70
2018-06-23T22:12:04.981Z,12.70
2018-06-23T22:14:32.946Z,12.70
2018-06-23T22:17:00.966Z,12.70
2018-06-23T22:19:28.977Z,12.60
2018-06-23T22:21:57.000Z,12.70
2018-06-23T22:24:25.020Z,12.60
2018-06-23T22:26:53.032Z,12.60
2018-06-23T22:29:21.096Z,12.60
2018-06-23T22:31:49.231Z,12.60
2018-06-23T22:34:17.255Z,12.60
2018-06-23T22:36:45.302Z,12.60
2018-06-23T22:39:13.584Z,12.60
2018-06-23T22:41:41.744Z,12.70
2018-06-23T22:44:10.020Z,12.60
2018-06-23T22:46:38.076Z,12.60
2018-06-23T22:49:06.138Z,12.60
2018-06-23T22:51:34.196Z,12.60
2018-06-23T22:54:02.513Z,12.60
2018-06-23T22:56:30.791Z,12.50
2018-06-23T22:58:59.065Z,12.50
2018-06-23T23:01:27.110Z,12.50
2018-06-23T23:03:55.172Z,12.50
2018-06-23T23:06:23.205Z,12.50
2018-06-23T23:08:51.239Z,12.50
2018-06-23T23:11:19.269Z,12.60
2018-06-23T23:13:47.305Z,12.60
2018-06-23T23:16:15.325Z,12.60
2018-06-23T23:18:43.392Z,12.60
2018-06-23T23:21:11.413Z,12.70
2018-06-23T23:23:39.437Z,12.60
2018-06-23T23:26:07.472Z,12.60
2018-06-23T23:31:03.340Z,12.60
2018-06-23T23:33:31.373Z,12.60
2018-06-23T23:38:27.197Z,12.60
2018-06-23T23:43:23.053Z,12.60
2018-06-23T23:45:51.091Z,12.60
2018-06-23T23:48:19.148Z,12.60
2018-06-23T23:50:47.183Z,12.60
2018-06-23T23:53:15.203Z,12.60
2018-06-23T23:55:43.241Z,12.50
2018-06-23T23:58:11.312Z,12.50
